Hlavní strana
METAR-TAF:

METAR-TAF

Letiště :

Greenwood County Airport

Greenwood, Jižní Karolína, Spojené státy americké

zeměpisná šířka: 34-14-50N, zeměpisná délka: 082-09-17W, výška: 192 m

Aktuální stav počasí

Zpráva byla vytvořena před 42 minutami, v 10:56 UTC
Západojihozápadní vítr 5 kt
Teplota 21°C
Vlhkost vzduchu 88%
Tlak 1022 hPa
Viditelnost: 16.1 km
Jasno

METAR: KGRD 241056Z AUTO 24005KT 10SM CLR 21/19 A3018 RMK AO2 SLP213 T02110189

Čas: 07:38 (11:38 UTC)


TAF: chybějící

Stav a předpovědi počasí z více než 4 000 letišť (zprávy METAR a TAF).

Červené a žluté tečky na mapě představují dostupné meteorologické stanice.

Když kurzor umístíte na tečku, zobrazí se název stanice.

Pak kliknutím zobrazíte stav a předpověď počasí.

Chcete-li změnit mapu, kliknutím na zelené tlačítko se znaménkem +mapu přiblížíte, kliknutím na zelené tlačítko se znaménkem – mapu oddálíte a kliknutím na zelené šipky přejdete na sousední mapy.


METAR-TAF: